Terminal Aerodrome Forecast
Issued by NWS

Home | Current Version | Previous Version | Text Only | Print | Product List | Glossary On
Versions: 1 2 3 4 5 6 7 8 9 10 11 12 13 14 15 16 17 18 19 20 21
000
FTUS43 KAPX 210500
TAFAPN
TAF
KAPN 210520Z 2106/2206 VRB03KT P6SM VCSH OVC070
     FM211000 VRB03KT P6SM VCSH SCT030 OVC060
     FM211800 13008KT 5SM -RA OVC025
     FM220000 35004KT 3SM -RA BR OVC008=

USA.gov is the U.S. government's official web portal to all federal, state and local government web resources and services.